createdAt,value
2018-04-15T00:01:34.866Z,18.08
2018-04-15T00:04:02.251Z,17.95
2018-04-15T00:06:29.642Z,17.89
2018-04-15T00:08:57.029Z,17.85
2018-04-15T00:11:24.483Z,17.93
2018-04-15T00:13:51.882Z,17.93
2018-04-15T00:16:19.319Z,17.95
2018-04-15T00:18:46.700Z,17.69
2018-04-15T00:21:14.090Z,17.79
2018-04-15T00:23:41.478Z,17.82
2018-04-15T00:26:08.863Z,17.73
2018-04-15T00:28:36.243Z,17.66
2018-04-15T00:31:03.655Z,17.76
2018-04-15T00:33:31.050Z,17.77
2018-04-15T00:35:58.441Z,17.56
2018-04-15T00:38:25.828Z,17.65
2018-04-15T00:40:53.190Z,17.66
2018-04-15T00:43:20.568Z,17.82
2018-04-15T00:45:47.955Z,17.81
2018-04-15T00:48:15.338Z,17.90
2018-04-15T00:50:42.730Z,17.76
2018-04-15T00:53:10.122Z,17.32
2018-04-15T00:55:38.332Z,17.43
2018-04-15T00:58:05.734Z,17.38
2018-04-15T01:00:33.110Z,17.33
2018-04-15T01:03:00.548Z,17.40
2018-04-15T01:05:27.922Z,17.48
2018-04-15T01:07:55.323Z,17.59
2018-04-15T01:10:22.729Z,17.70
2018-04-15T01:12:50.110Z,17.70
2018-04-15T01:15:17.515Z,17.68
2018-04-15T01:17:44.909Z,17.62
2018-04-15T01:20:12.293Z,17.57
2018-04-15T01:22:39.687Z,17.65
2018-04-15T01:25:07.091Z,17.73
2018-04-15T01:27:34.477Z,17.46
2018-04-15T01:30:01.902Z,17.50
2018-04-15T01:32:29.299Z,17.60
2018-04-15T01:34:56.689Z,17.35
2018-04-15T01:37:24.058Z,17.45
2018-04-15T01:39:51.451Z,17.51
2018-04-15T01:42:18.834Z,17.44
2018-04-15T01:44:46.211Z,17.48
2018-04-15T01:47:13.610Z,17.57
2018-04-15T01:49:41.026Z,17.46
2018-04-15T01:52:08.486Z,17.35
2018-04-15T01:54:35.882Z,17.39
2018-04-15T01:57:03.295Z,17.46
2018-04-15T01:59:30.698Z,17.46
2018-04-15T02:01:58.299Z,17.48
2018-04-15T02:04:25.678Z,17.50
2018-04-15T02:06:53.084Z,17.47
2018-04-15T02:09:20.573Z,17.55
2018-04-15T02:11:48.031Z,17.48
2018-04-15T02:14:15.407Z,17.30
2018-04-15T02:16:42.842Z,17.26
2018-04-15T02:19:10.189Z,17.14
2018-04-15T02:21:37.663Z,17.06
2018-04-15T02:24:05.088Z,17.13
2018-04-15T02:26:32.458Z,17.01
2018-04-15T02:29:00.014Z,16.99
2018-04-15T02:31:27.386Z,17.10
2018-04-15T02:33:54.807Z,17.07
2018-04-15T02:36:22.210Z,16.81
2018-04-15T02:38:49.595Z,16.98
2018-04-15T02:41:17.002Z,16.95
2018-04-15T02:43:44.387Z,17.13
2018-04-15T02:46:11.769Z,17.03
2018-04-15T02:48:39.155Z,17.11
2018-04-15T02:51:06.612Z,17.17
2018-04-15T02:53:34.183Z,17.09
2018-04-15T02:56:01.550Z,16.80
2018-04-15T02:58:28.951Z,16.72
2018-04-15T03:00:56.374Z,16.98
2018-04-15T03:03:23.753Z,16.94
2018-04-15T03:05:51.234Z,16.54
2018-04-15T03:08:18.604Z,16.27
2018-04-15T03:10:46.006Z,16.11
2018-04-15T03:13:13.415Z,15.99
2018-04-15T03:15:40.784Z,16.00
2018-04-15T03:18:08.174Z,15.82
2018-04-15T03:20:36.575Z,15.85
2018-04-15T03:23:03.950Z,15.66
2018-04-15T03:25:31.355Z,15.49
2018-04-15T03:27:58.759Z,15.65
2018-04-15T03:30:26.174Z,15.75
2018-04-15T03:32:53.632Z,15.76
2018-04-15T03:35:21.036Z,15.64
2018-04-15T03:37:48.432Z,15.61
2018-04-15T03:40:15.807Z,16.07
2018-04-15T03:42:43.200Z,15.27
2018-04-15T03:45:10.567Z,15.59
2018-04-15T03:47:37.955Z,15.81
2018-04-15T03:50:05.342Z,15.42
2018-04-15T03:52:32.721Z,15.87
2018-04-15T03:55:00.146Z,15.99
2018-04-15T03:57:27.531Z,16.45
2018-04-15T03:59:54.903Z,16.20
2018-04-15T04:02:22.291Z,16.56
2018-04-15T04:04:49.730Z,16.69
2018-04-15T04:07:17.252Z,16.64
2018-04-15T04:09:44.663Z,16.81
2018-04-15T04:12:12.065Z,16.43
2018-04-15T04:14:39.522Z,15.99
2018-04-15T04:17:06.908Z,15.91
2018-04-15T04:19:46.023Z,15.60
2018-04-15T04:22:25.204Z,15.62
2018-04-15T04:38:19.916Z,15.80
2018-04-15T04:40:47.300Z,15.63
2018-04-15T04:43:14.690Z,15.48
2018-04-15T04:45:42.083Z,15.57
2018-04-15T04:48:09.468Z,15.39
2018-04-15T04:50:36.855Z,15.52
2018-04-15T04:53:04.255Z,15.40
2018-04-15T04:55:31.639Z,15.31
2018-04-15T04:57:59.019Z,15.37
2018-04-15T05:00:26.422Z,15.21
2018-04-15T05:02:53.886Z,15.23
2018-04-15T05:05:21.356Z,15.22
2018-04-15T05:07:48.708Z,15.34
2018-04-15T05:10:16.101Z,15.37
2018-04-15T05:12:43.474Z,15.48
2018-04-15T05:15:10.896Z,15.35
2018-04-15T05:17:38.297Z,15.34
2018-04-15T05:20:05.701Z,15.41
2018-04-15T05:22:33.070Z,15.80
2018-04-15T05:25:01.154Z,15.42
2018-04-15T05:27:28.540Z,15.40
2018-04-15T05:29:55.994Z,15.43
2018-04-15T05:32:23.381Z,15.37
2018-04-15T05:34:50.774Z,15.33
2018-04-15T05:37:18.296Z,15.33
2018-04-15T05:39:45.692Z,15.46
2018-04-15T05:42:13.072Z,15.48
2018-04-15T05:44:40.761Z,15.42
2018-04-15T05:47:08.158Z,15.39
2018-04-15T05:49:35.661Z,15.42
2018-04-15T05:52:03.239Z,15.59
2018-04-15T05:54:30.614Z,15.59
2018-04-15T05:56:57.998Z,15.84
2018-04-15T05:59:25.387Z,15.64
2018-04-15T06:01:52.795Z,15.72
2018-04-15T06:04:20.168Z,16.11
2018-04-15T06:06:47.667Z,16.21
2018-04-15T06:09:15.107Z,16.33
2018-04-15T06:11:42.485Z,16.42
2018-04-15T06:14:09.869Z,16.47
2018-04-15T06:16:37.252Z,16.61
2018-04-15T06:19:04.732Z,16.33
2018-04-15T06:21:32.247Z,16.16
2018-04-15T06:23:59.684Z,16.27
2018-04-15T06:26:27.288Z,16.52
2018-04-15T06:28:54.679Z,16.49
2018-04-15T06:31:22.053Z,16.48
2018-04-15T06:33:49.551Z,16.67
2018-04-15T06:36:16.935Z,16.50
2018-04-15T06:38:44.526Z,16.30
2018-04-15T06:41:11.913Z,16.48
2018-04-15T06:43:39.303Z,16.70
2018-04-15T06:46:06.675Z,16.84
2018-04-15T06:48:34.060Z,16.91
2018-04-15T06:51:01.481Z,16.92
2018-04-15T06:53:28.856Z,17.07
2018-04-15T06:55:56.262Z,17.14
2018-04-15T06:58:23.658Z,17.00
2018-04-15T07:00:51.035Z,17.00
2018-04-15T07:03:18.416Z,17.04
2018-04-15T07:05:45.833Z,17.11
2018-04-15T07:08:13.200Z,17.31
2018-04-15T07:10:40.614Z,17.37
2018-04-15T07:13:07.981Z,17.34
2018-04-15T07:15:35.368Z,17.26
2018-04-15T07:18:02.755Z,17.16
2018-04-15T07:20:30.176Z,17.36
2018-04-15T07:22:57.575Z,17.44
2018-04-15T07:25:24.994Z,17.44
2018-04-15T07:27:52.391Z,17.48
2018-04-15T07:30:19.768Z,17.41
2018-04-15T07:32:47.159Z,17.40
2018-04-15T07:35:14.538Z,17.65
2018-04-15T07:37:42.916Z,17.74
2018-04-15T07:40:10.298Z,17.76
2018-04-15T07:42:37.684Z,17.78
2018-04-15T07:45:05.088Z,17.94
2018-04-15T07:47:32.473Z,18.07
2018-04-15T07:49:59.849Z,18.22
2018-04-15T07:52:27.462Z,18.29
2018-04-15T07:54:54.849Z,18.39
2018-04-15T07:57:22.510Z,18.32
2018-04-15T07:59:49.890Z,18.39
2018-04-15T08:02:17.323Z,18.21
2018-04-15T08:04:44.682Z,17.96
2018-04-15T08:07:12.050Z,18.45
2018-04-15T08:09:39.757Z,18.70
2018-04-15T08:12:07.151Z,18.64
2018-04-15T08:14:34.546Z,18.82
2018-04-15T08:17:01.933Z,18.74
2018-04-15T08:19:29.336Z,18.68
2018-04-15T08:21:56.731Z,18.43
2018-04-15T08:24:24.124Z,18.65
2018-04-15T08:26:51.511Z,18.59
2018-04-15T08:29:18.894Z,18.66
2018-04-15T08:31:46.287Z,18.77
2018-04-15T08:34:13.700Z,18.42
2018-04-15T08:36:41.110Z,18.60
2018-04-15T08:39:08.468Z,18.63
2018-04-15T08:41:35.848Z,18.99
2018-04-15T08:44:03.222Z,19.31
2018-04-15T08:46:30.616Z,19.34
2018-04-15T08:48:58.014Z,19.37
2018-04-15T08:51:25.420Z,19.23
2018-04-15T08:53:52.899Z,19.32
2018-04-15T08:56:20.294Z,19.29
2018-04-15T08:58:47.680Z,19.09
2018-04-15T09:01:15.088Z,19.17
2018-04-15T09:03:42.451Z,19.20
2018-04-15T09:06:09.875Z,19.39
2018-04-15T09:08:37.396Z,19.32
2018-04-15T09:11:04.771Z,19.54
2018-04-15T09:13:32.138Z,19.66
2018-04-15T09:15:59.527Z,19.56
2018-04-15T09:18:26.951Z,19.64
2018-04-15T09:20:54.335Z,19.63
2018-04-15T09:23:21.732Z,19.69
2018-04-15T09:25:49.115Z,19.75
2018-04-15T09:28:16.535Z,19.60
2018-04-15T09:30:49.430Z,19.74
2018-04-15T09:33:16.828Z,19.95
2018-04-15T09:35:44.278Z,20.00
2018-04-15T09:38:11.677Z,20.21
2018-04-15T09:40:39.054Z,20.16
2018-04-15T09:43:06.456Z,20.16
2018-04-15T09:45:34.905Z,20.35
2018-04-15T09:48:02.287Z,20.40
2018-04-15T09:50:29.678Z,20.46
2018-04-15T09:52:57.655Z,20.15
2018-04-15T09:55:25.043Z,20.40
2018-04-15T09:57:52.420Z,20.74
2018-04-15T10:00:19.803Z,20.52
2018-04-15T10:02:47.183Z,20.57
2018-04-15T10:05:14.567Z,20.77
2018-04-15T10:07:41.976Z,20.97
2018-04-15T10:10:09.364Z,21.21
2018-04-15T10:12:36.887Z,21.28
2018-04-15T10:15:04.331Z,21.41
2018-04-15T10:17:31.699Z,21.41
2018-04-15T10:19:59.148Z,21.56
2018-04-15T10:22:26.524Z,21.58
2018-04-15T10:24:53.911Z,21.28
2018-04-15T10:27:21.302Z,21.57
2018-04-15T10:29:48.708Z,21.46
2018-04-15T10:32:16.099Z,21.57
2018-04-15T10:34:43.535Z,21.20
2018-04-15T10:37:15.362Z,21.13
2018-04-15T10:39:49.467Z,20.87
2018-04-15T10:42:17.785Z,20.94
2018-04-15T10:44:45.238Z,20.80
2018-04-15T10:47:12.611Z,21.07
2018-04-15T10:49:40.012Z,21.15
2018-04-15T10:52:07.431Z,21.17
2018-04-15T10:54:34.842Z,21.23
2018-04-15T10:57:02.227Z,21.46
2018-04-15T10:59:29.595Z,21.70
2018-04-15T11:01:56.977Z,22.08
2018-04-15T11:04:24.412Z,22.25
2018-04-15T11:06:51.887Z,22.43
2018-04-15T11:09:19.251Z,22.70
2018-04-15T11:11:46.615Z,22.80
2018-04-15T11:14:14.019Z,22.84
2018-04-15T11:16:41.395Z,23.08
2018-04-15T11:19:08.776Z,22.93
2018-04-15T11:21:36.231Z,23.20
2018-04-15T11:24:03.626Z,23.35
2018-04-15T11:26:31.035Z,23.63
2018-04-15T11:28:58.520Z,23.15
2018-04-15T11:31:25.842Z,23.30
2018-04-15T11:33:53.600Z,23.34
2018-04-15T11:36:20.996Z,23.49
2018-04-15T11:38:51.065Z,23.93
2018-04-15T11:41:18.580Z,24.02
2018-04-15T11:43:46.491Z,24.27
2018-04-15T11:46:13.883Z,24.29
2018-04-15T11:48:41.296Z,24.48
2018-04-15T11:51:08.683Z,24.58
2018-04-15T11:53:36.047Z,24.79
2018-04-15T11:56:03.460Z,24.59
2018-04-15T11:58:30.889Z,25.28
2018-04-15T12:00:58.299Z,25.58
2018-04-15T12:03:25.750Z,26.01
2018-04-15T12:05:53.127Z,26.04
2018-04-15T12:08:20.520Z,26.20
2018-04-15T12:10:47.986Z,26.97
2018-04-15T12:13:15.485Z,26.44
2018-04-15T12:15:42.893Z,25.58
2018-04-15T12:18:10.315Z,26.05
2018-04-15T12:20:37.783Z,26.86
2018-04-15T12:23:05.173Z,27.42
2018-04-15T12:25:32.560Z,28.32
2018-04-15T12:27:59.934Z,26.86
2018-04-15T12:30:27.332Z,26.44
2018-04-15T12:32:54.714Z,25.60
2018-04-15T12:35:22.120Z,26.08
2018-04-15T12:37:49.529Z,26.87
2018-04-15T12:40:16.912Z,25.73
2018-04-15T12:42:44.363Z,25.70
2018-04-15T12:45:11.729Z,25.54
2018-04-15T12:47:39.135Z,25.17
2018-04-15T12:50:06.518Z,25.50
2018-04-15T12:52:33.916Z,25.60
2018-04-15T12:55:01.304Z,25.59
2018-04-15T12:57:28.692Z,24.35
2018-04-15T12:59:56.079Z,24.72
2018-04-15T13:02:23.462Z,24.81
2018-04-15T13:04:50.834Z,24.96
2018-04-15T13:07:18.209Z,24.50
2018-04-15T13:09:45.604Z,24.17
2018-04-15T13:12:13.247Z,24.05
2018-04-15T13:14:40.608Z,25.51
2018-04-15T13:17:07.992Z,27.43
2018-04-15T13:19:35.374Z,28.17
2018-04-15T13:22:03.186Z,28.75
2018-04-15T13:24:30.572Z,30.24
2018-04-15T13:39:45.863Z,28.61
2018-04-15T13:42:13.282Z,29.39
2018-04-15T13:44:40.689Z,27.86
2018-04-15T13:47:08.080Z,27.83
2018-04-15T13:49:35.574Z,30.04
2018-04-15T13:52:02.975Z,29.20
2018-04-15T13:54:30.438Z,28.23
2018-04-15T13:56:57.812Z,28.85
2018-04-15T13:59:25.212Z,29.51
2018-04-15T14:01:52.598Z,28.88
2018-04-15T14:04:20.018Z,29.88
2018-04-15T14:06:47.451Z,29.73
2018-04-15T14:09:14.823Z,29.69
2018-04-15T14:11:42.279Z,29.43
2018-04-15T14:14:09.674Z,28.96
2018-04-15T14:16:37.053Z,29.07
2018-04-15T14:19:04.454Z,28.77
2018-04-15T14:21:31.828Z,28.81
2018-04-15T14:24:01.465Z,28.70
2018-04-15T14:26:29.616Z,28.08
2018-04-15T14:28:57.037Z,28.03
2018-04-15T14:31:24.425Z,29.49
2018-04-15T14:33:51.808Z,30.42
2018-04-15T14:36:19.195Z,31.09
2018-04-15T14:38:52.688Z,30.90
2018-04-15T14:41:23.659Z,31.36
2018-04-15T14:43:51.225Z,29.87
2018-04-15T14:46:18.613Z,28.44
2018-04-15T14:48:46.268Z,27.60
2018-04-15T14:51:13.639Z,27.45
2018-04-15T14:53:41.022Z,27.97
2018-04-15T14:56:08.559Z,27.37
2018-04-15T14:58:35.946Z,27.60
2018-04-15T15:01:03.398Z,27.80
2018-04-15T15:03:30.930Z,27.30
2018-04-15T15:05:58.411Z,27.02
2018-04-15T15:08:25.833Z,26.40
2018-04-15T15:10:53.239Z,26.43
2018-04-15T15:13:23.371Z,26.68
2018-04-15T15:15:53.180Z,27.62
2018-04-15T15:18:20.693Z,28.09
2018-04-15T15:20:48.081Z,27.81
2018-04-15T15:23:15.460Z,27.19
2018-04-15T15:25:42.888Z,27.17
2018-04-15T15:28:10.331Z,27.64
2018-04-15T15:30:37.699Z,27.20
2018-04-15T15:33:05.141Z,27.34
2018-04-15T15:35:32.548Z,26.74
2018-04-15T15:37:59.940Z,26.50
2018-04-15T15:40:27.575Z,25.99
2018-04-15T15:42:54.952Z,26.50
2018-04-15T15:45:22.432Z,26.92
2018-04-15T15:47:49.843Z,27.19
2018-04-15T15:50:17.253Z,27.37
2018-04-15T15:52:44.633Z,27.95
2018-04-15T15:55:12.079Z,27.68
2018-04-15T15:57:39.513Z,27.16
2018-04-15T16:00:07.831Z,27.00
2018-04-15T16:02:35.315Z,26.80
2018-04-15T16:05:02.688Z,26.55
2018-04-15T16:07:30.086Z,26.20
2018-04-15T16:09:57.467Z,25.77
2018-04-15T16:12:24.949Z,25.60
2018-04-15T16:14:52.319Z,25.73
2018-04-15T16:17:19.884Z,25.81
2018-04-15T16:19:47.291Z,25.83
2018-04-15T16:22:14.785Z,25.80
2018-04-15T16:24:42.171Z,25.31
2018-04-15T16:27:09.665Z,25.23
2018-04-15T16:29:37.064Z,25.30
2018-04-15T16:32:05.462Z,25.24
2018-04-15T16:34:32.842Z,25.03
2018-04-15T16:37:00.240Z,25.01
2018-04-15T16:39:27.631Z,24.97
2018-04-15T16:41:55.004Z,25.15
2018-04-15T16:44:22.406Z,25.05
2018-04-15T16:46:49.800Z,24.79
2018-04-15T16:49:17.191Z,24.39
2018-04-15T16:51:44.569Z,24.16
2018-04-15T16:54:11.993Z,24.23
2018-04-15T16:56:39.372Z,24.00
2018-04-15T16:59:06.980Z,24.10
2018-04-15T17:01:34.383Z,24.20
2018-04-15T17:04:01.756Z,24.10
2018-04-15T17:06:29.152Z,24.29
2018-04-15T17:08:56.534Z,24.33
2018-04-15T17:11:23.915Z,24.25
2018-04-15T17:13:51.315Z,23.85
2018-04-15T17:16:18.690Z,23.98
2018-04-15T17:18:46.095Z,23.85
2018-04-15T17:21:13.526Z,23.75
2018-04-15T17:23:40.888Z,23.66
2018-04-15T17:26:08.257Z,23.48
2018-04-15T17:28:35.740Z,23.39
2018-04-15T17:31:03.160Z,23.18
2018-04-15T17:33:30.604Z,23.35
2018-04-15T17:35:57.984Z,23.14
2018-04-15T17:38:25.375Z,23.33
2018-04-15T17:40:52.836Z,23.21
2018-04-15T17:43:20.199Z,23.10
2018-04-15T17:45:47.657Z,23.16
2018-04-15T17:48:15.253Z,22.85
2018-04-15T17:50:42.669Z,22.82
2018-04-15T17:53:10.097Z,22.72
2018-04-15T17:55:37.525Z,22.63
2018-04-15T17:58:04.916Z,22.93
2018-04-15T18:00:32.328Z,22.93
2018-04-15T18:02:59.781Z,22.92
2018-04-15T18:05:27.189Z,22.84
2018-04-15T18:07:54.600Z,22.61
2018-04-15T18:10:22.011Z,22.69
2018-04-15T18:12:49.440Z,22.81
2018-04-15T18:15:16.823Z,22.69
2018-04-15T18:17:44.211Z,22.46
2018-04-15T18:20:11.632Z,22.61
2018-04-15T18:22:39.022Z,22.51
2018-04-15T18:25:06.512Z,22.43
2018-04-15T18:27:33.899Z,22.48
2018-04-15T18:30:01.302Z,22.46
2018-04-15T18:32:28.749Z,22.37
2018-04-15T18:34:56.180Z,22.56
2018-04-15T18:37:23.574Z,22.64
2018-04-15T18:39:51.013Z,22.70
2018-04-15T18:42:18.432Z,22.59
2018-04-15T18:44:45.875Z,22.57
2018-04-15T18:47:13.234Z,22.66
2018-04-15T18:49:40.624Z,22.59
2018-04-15T18:52:08.138Z,22.52
2018-04-15T18:54:35.532Z,22.54
2018-04-15T18:57:02.922Z,22.52
2018-04-15T18:59:30.303Z,22.52
2018-04-15T19:01:57.708Z,22.45
2018-04-15T19:04:25.099Z,22.38
2018-04-15T19:06:52.506Z,22.31
2018-04-15T19:09:19.906Z,22.37
2018-04-15T19:11:47.333Z,22.38
2018-04-15T19:14:14.789Z,22.32
2018-04-15T19:16:42.175Z,22.18
2018-04-15T19:19:09.562Z,22.20
2018-04-15T19:21:36.940Z,22.34
2018-04-15T19:24:04.335Z,22.27
2018-04-15T19:26:31.725Z,22.34
2018-04-15T19:28:59.104Z,22.45
2018-04-15T19:31:27.440Z,22.26
2018-04-15T19:33:54.807Z,22.35
2018-04-15T19:36:22.216Z,22.29
2018-04-15T19:38:49.875Z,22.35
2018-04-15T19:41:17.358Z,22.26
2018-04-15T19:43:44.789Z,22.24
2018-04-15T19:46:12.206Z,22.25
2018-04-15T19:48:39.658Z,22.26
2018-04-15T19:51:07.079Z,22.10
2018-04-15T19:53:34.480Z,22.13
2018-04-15T19:56:01.862Z,22.10
2018-04-15T19:58:29.339Z,22.10
2018-04-15T20:00:56.715Z,22.03
2018-04-15T20:03:25.139Z,21.99
2018-04-15T20:05:52.551Z,21.75
2018-04-15T20:08:20.022Z,21.66
2018-04-15T20:10:47.419Z,21.65
2018-04-15T20:13:14.797Z,21.64
2018-04-15T20:15:42.230Z,21.38
2018-04-15T20:18:09.629Z,21.59
2018-04-15T20:20:37.066Z,21.30
2018-04-15T20:23:04.439Z,21.14
2018-04-15T20:25:31.852Z,20.86
2018-04-15T20:27:59.217Z,21.00
2018-04-15T20:30:26.612Z,20.97
2018-04-15T20:32:54.011Z,20.89
2018-04-15T20:35:21.416Z,21.03
2018-04-15T20:37:48.788Z,20.99
2018-04-15T20:40:16.180Z,20.88
2018-04-15T20:42:44.105Z,20.64
2018-04-15T20:45:11.491Z,20.82
2018-04-15T20:47:38.879Z,20.72
2018-04-15T20:50:06.252Z,20.36
2018-04-15T20:52:33.663Z,20.28
2018-04-15T20:55:01.043Z,20.15
2018-04-15T20:57:28.465Z,20.01
2018-04-15T20:59:55.979Z,19.73
2018-04-15T21:02:23.433Z,19.69
2018-04-15T21:04:52.721Z,19.75
2018-04-15T21:07:20.108Z,19.72
2018-04-15T21:09:47.522Z,19.76
2018-04-15T21:12:14.931Z,19.62
2018-04-15T21:14:42.276Z,19.37
2018-04-15T21:17:09.782Z,19.68
2018-04-15T21:19:37.251Z,19.59
2018-04-15T21:22:04.648Z,19.59
2018-04-15T21:24:32.098Z,19.29
2018-04-15T21:26:59.506Z,19.45
2018-04-15T21:29:27.043Z,19.38
2018-04-15T21:31:54.426Z,19.34
2018-04-15T21:34:21.835Z,19.45
2018-04-15T21:36:49.296Z,19.29
2018-04-15T21:39:17.770Z,19.22
2018-04-15T21:41:45.856Z,19.39
2018-04-15T21:44:13.245Z,19.34
2018-04-15T21:46:40.870Z,19.38
2018-04-15T21:49:08.257Z,19.80
2018-04-15T21:51:35.651Z,19.65
2018-04-15T21:54:03.080Z,19.19
2018-04-15T21:56:30.476Z,18.94
2018-04-15T21:58:57.868Z,19.37
2018-04-15T22:01:25.284Z,18.92
2018-04-15T22:03:52.677Z,18.74
2018-04-15T22:06:20.153Z,19.03
2018-04-15T22:08:47.541Z,19.24
2018-04-15T22:11:14.953Z,19.13
2018-04-15T22:13:42.385Z,19.22
2018-04-15T22:16:09.907Z,19.40
2018-04-15T22:18:37.273Z,19.58
2018-04-15T22:21:04.665Z,19.63
2018-04-15T22:23:32.239Z,19.59
2018-04-15T22:25:59.656Z,19.75
2018-04-15T22:28:27.067Z,19.75
2018-04-15T22:30:54.454Z,19.26
2018-04-15T22:33:21.859Z,19.25
2018-04-15T22:35:49.253Z,19.46
2018-04-15T22:38:16.730Z,19.46
2018-04-15T22:40:44.095Z,19.35
2018-04-15T22:43:11.479Z,19.15
2018-04-15T22:45:38.874Z,18.99
2018-04-15T22:48:06.269Z,19.35
2018-04-15T22:50:37.604Z,19.02
2018-04-15T22:53:04.982Z,19.16
2018-04-15T22:55:32.800Z,19.27
2018-04-15T22:58:00.249Z,19.35
2018-04-15T23:00:27.712Z,19.40
2018-04-15T23:02:55.112Z,19.51
2018-04-15T23:05:22.489Z,19.34
2018-04-15T23:07:50.438Z,19.56
2018-04-15T23:10:18.148Z,19.56
2018-04-15T23:12:45.658Z,19.31
2018-04-15T23:15:13.038Z,19.58
2018-04-15T23:17:40.421Z,19.54
2018-04-15T23:20:07.950Z,19.38
2018-04-15T23:22:35.415Z,19.53
2018-04-15T23:25:02.830Z,19.24
2018-04-15T23:27:30.276Z,19.28
2018-04-15T23:29:57.660Z,19.48
2018-04-15T23:32:25.074Z,19.45
2018-04-15T23:34:52.453Z,19.19
2018-04-15T23:37:19.815Z,19.26
2018-04-15T23:39:47.212Z,19.42
2018-04-15T23:42:14.608Z,19.36
2018-04-15T23:44:41.985Z,19.29
2018-04-15T23:47:09.363Z,19.23
2018-04-15T23:49:37.025Z,19.46
2018-04-15T23:52:04.585Z,19.34
2018-04-15T23:54:31.996Z,19.24
2018-04-15T23:56:59.527Z,19.17
2018-04-15T23:59:27.017Z,18.72
